Terminal Aerodrome Forecast
Issued by NWS Wilmington, OH

Current Version | Previous Version | Graphics & Text | Print | Product List | Glossary On
Versions: 1 2 3 4 5 6 7 8 9 10 11 12 13 14 15 16 17 18 19 20 21 22
000
FTUS41 KILN 242300
TAFILN
TAF
KILN 242334Z 2500/2524 27022G35KT P6SM -RA BKN010 BKN014 OVC019
     FM250300 25016G28KT P6SM VCSH OVC012
     FM251200 24012G21KT P6SM BKN020=

USA.gov is the U.S. government's official web portal to all federal, state and local government web resources and services.